Metar Cercanos

 

LEPA - Palma De Mallorc, Spain
Distance from station: ONO 38km
Actualización: Fri, 05-Mar-2021 2:30pm CET
Few Clouds
Few Clouds
 Viento del SO
Viento: SO 17 km/h
Temperatura: 17°C
Rocío: 10°C
Humedad: 64%
Clouds: Few Clouds
Visibility: 10 km
Cloud details: Few Clouds 762 m
2021/03/05 13:30 LEPA 051330Z 23009KT 200V260 9999 FEW025 17/10 Q101
LEMH - Mahon/Menorca Is, Spain
Distance from station: ENE 105km
Actualización: Fri, 05-Mar-2021 2:30pm CET
Few Clouds
Few Clouds
 Viento del NE
Viento: NE 13 km/h
Temperatura: 15°C
Rocío: 6°C
Humedad: 55%
Barómetro: 1017 hPa
Clouds: Few Clouds
Visibility: 10 km
Cloud details: Few Clouds 1189 m
2021/03/05 13:30 LEMH 051330Z 05007KT 360V110 9999 FEW039 15/06 Q1017
 
LEIB - Ibiza/Es Codola, Spain
Distance from station: OSO 165km
Actualización: Fri, 05-Mar-2021 2:30pm CET
Few Clouds
Few Clouds
 Viento del E
Viento: E 15 km/h
Temperatura: 16°C
Rocío: 11°C
Humedad: 72%
Barómetro: 1017 hPa
Clouds: Few Clouds
Visibility: 10 km
Cloud details: Few Clouds 457 m
2021/03/05 13:30 LEIB 051330Z 09008KT 050V120 9999 FEW015 16/11 Q1017 NOSIG
LEBL - Barcelona Airpor, Spain
Distance from station: NNO 225km
Actualización: Fri, 05-Mar-2021 2:30pm CET
Few Clouds
Few Clouds
 Viento del SSO
Viento: SSO 11 km/h
Temperatura: 14°C
Rocío: 10°C
Humedad: 77%
Barómetro: 1017 hPa
Clouds: Few Clouds
Visibility: 10 km
Cloud details: Few Clouds 610 m
2021/03/05 13:30 LEBL 051330Z 21006KT 160V250 9999 FEW020 14/10 Q1017 NOSIG
 
LEVC - Valencia (civ/Mi, Spain
Distance from station: NO 188km
Actualización: Fri, 05-Mar-2021 2:30pm CET
Few Clouds
Few Clouds
 Viento del SE
Viento: SE 13 km/h
Temperatura: 17°C
Rocío: 9°C
Humedad: 59%
Barómetro: 1017 hPa
Clouds: Few Clouds
Visibility: 10 km
Cloud details: Few Clouds 914 m
2021/03/05 13:30 LEVC 051330Z 13007KT 080V170 9999 FEW030 17/09 Q1017 NOSIG
LEGE - Gerona/Costa Bra, Spain
Distance from station: N 276km
Actualización: Fri, 05-Mar-2021 2:30pm CET
Cubierto
Cubierto
 Viento del S
Viento: S 7 km/h
Temperatura: 15°C
Rocío: 9°C
Humedad: 68%
Barómetro: 1017 hPa
Clouds: Cubierto
Visibility: 10 km
Cloud details: Cubierto 671 m
2021/03/05 13:30 LEGE 051330Z 19004KT 150V220 9999 OVC022 15/09 Q1017
 
LEAL - Alicante/El Alte, Spain
Distance from station: OSO 344km
Actualización: Fri, 05-Mar-2021 2:30pm CET
Parcialmente nuboso
Parcialmente nuboso
 Viento del E
Viento: E 19 km/h
Temperatura: 15°C
Rocío: 10°C
Humedad: 72%
Barómetro: 1017 hPa
Clouds: Parcialmente nuboso
Visibility: 10 km
Cloud details: Few Clouds 732 m
Parcialmente nuboso 1524 m
2021/03/05 13:30 LEAL 051330Z 08010KT 020V100 9999 FEW024 SCT050 15/10 Q1017 NOSIG
LEAM - Almeria Airport, Spain
Distance from station: SSO 56km
Actualización: Fri, 05-Mar-2021 2:30pm CET
Muy nuboso
Muy nuboso
 Viento del ENE
Viento: ENE 30 km/h
Temperatura: 19°C
Rocío: 9°C
Humedad: 52%
Barómetro: 1015 hPa
Clouds: Muy nuboso
Visibility: 10 km
Cloud details: Few Clouds 1219 m
Parcialmente nuboso 2134 m
Muy nuboso 2743 m
2021/03/05 13:30 LEAM 051330Z 07016KT 9999 FEW040 SCT070 BKN090 19/09 Q1015
 
LEZG - Zaragoza (mil/Ci, Spain
Distance from station: NO 431km
Actualización: Fri, 05-Mar-2021 2:30pm CET
Muy nuboso
Muy nuboso
 Viento del ONO
Viento: ONO 11 km/h
Temperatura: 15°C
Rocío: 7°C
Humedad: 59%
Barómetro: 1017 hPa
Clouds: Muy nuboso
Visibility: 9 km
Cloud details: Muy nuboso 1219 m
2021/03/05 13:30 LEZG 051330Z 29006KT 260V340 9000 BKN040 15/07 Q1017
LEMD - Madrid/Barajas, Spain
Distance from station: ONO 234km
Actualización: Fri, 05-Mar-2021 2:30pm CET
Few Clouds
Few Clouds
 Viento del NE
Viento: NE 6 km/h
Temperatura: 13°C
Rocío: 6°C
Humedad: 63%
Barómetro: 1016 hPa
Clouds: Few Clouds
Visibility: 10 km
Cloud details: Few Clouds 853 m
2021/03/05 13:30 LEMD 051330Z 04003KT 9999 FEW028 13/06 Q1016 NOSIG
 
LEGR - Granada Airport, Spain
Distance from station: OSO 62km
Actualización: Fri, 05-Mar-2021 2:30pm CET
Parcialmente nuboso
Parcialmente nuboso
 Viento del SE
Viento: SE 22 km/h
Temperatura: 17°C
Rocío: 6°C
Humedad: 49%
Barómetro: 1013 hPa
Clouds: Parcialmente nuboso
Visibility: 10 km
Cloud details: Few Clouds 1372 m
Parcialmente nuboso 3353 m
2021/03/05 13:30 LEGR 051330Z 14012KT 110V190 9999 FEW045 SCT110 17/06 Q1013
LEMG - Malaga (civ/Mil), Spain
Distance from station: OSO 227km
Actualización: Fri, 05-Mar-2021 2:30pm CET
Muy nuboso
Muy nuboso
 Viento del E
Viento: E 33 km/h
Temperatura: 15°C
Rocío: 12°C
Humedad: 82%
Barómetro: 1014 hPa
Clouds: Muy nuboso
Visibility: 10 km
Cloud details: Parcialmente nuboso 549 m
Muy nuboso 762 m
2021/03/05 13:30 LEMG 051330Z 09018KT 9999 SCT018 BKN025 15/12 Q1014 NOSIG
 
LEZL - Sevilla (civ/Mil, Spain
Distance from station: S 318km
Actualización: Fri, 05-Mar-2021 2:30pm CET
Lluvia débil, Parcialmente nuboso
Lluvia débil, Parcialmente nuboso
 Viento del NE
Viento: NE 15 km/h
Temperatura: 13°C
Rocío: 11°C
Humedad: 88%
Barómetro: 1014 hPa
Resumen: Lluvia débil
Clouds: Parcialmente nuboso
Visibility: 8 km
Cloud details: Parcialmente nuboso 1402 m
2021/03/05 13:30 LEZL 051330Z 05008KT 8000 -RA SCT046 13/11 Q1014 NOSIG
LEVT - Vitoria, Spain
Distance from station: NO 226km
Actualización: Fri, 05-Mar-2021 2:30pm CET
Cubierto
Cubierto
 Viento del N
Viento: N 15 km/h
Temperatura: 11°C
Rocío: 8°C
Humedad: 82%
Barómetro: 1019 hPa
Clouds: Cubierto
Visibility: 10 km
Cloud details: Few Clouds 396 m
Muy nuboso 671 m
Cubierto 1433 m
2021/03/05 13:30 LEVT 051330Z 01008KT 330V040 9999 FEW013 BKN022 OVC047 11/08 Q1019
 
LEBB - Bilbao/Sondica, Spain
Distance from station: NNO 235km
Actualización: Fri, 05-Mar-2021 2:30pm CET
Muy nuboso
Muy nuboso
 Viento del NO
Viento: NO 9 km/h
Temperatura: 13°C
Rocío: 9°C
Humedad: 77%
Barómetro: 1021 hPa
Clouds: Muy nuboso
Visibility: 10 km
Cloud details: Parcialmente nuboso 732 m
Muy nuboso 853 m
2021/03/05 13:30 LEBB 051330Z 32005KT 280V360 9999 SCT024 BKN028 13/09 Q1021 NOSIG
LESO - San Sebastian/Fu, Spain
Distance from station: N 231km
Actualización: Fri, 05-Mar-2021 2:30pm CET
Muy nuboso
Muy nuboso
 Viento del NNO
Viento: NNO 9 km/h
Temperatura: 12°C
Rocío: 9°C
Humedad: 82%
Barómetro: 1020 hPa
Clouds: Muy nuboso
Visibility: 10 km
Cloud details: Muy nuboso 457 m
Muy nuboso 1524 m
2021/03/05 13:30 LESO 051330Z 33005KT 280V020 9999 BKN015 BKN050 12/09 Q1020
 
LEVD - Valladolid(Mil/C, Spain
Distance from station: ONO 239km
Actualización: Fri, 05-Mar-2021 2:30pm CET
Despejado
Despejado
 Viento del ENE
Viento: ENE 24 km/h
Temperatura: 13°C
Rocío: 5°C
Humedad: 59%
Barómetro: 1016 hPa
Resumen: Despejado
Visibility: greater than 10 km
2021/03/05 13:30 LEVD 051330Z 07013KT CAVOK 13/05 Q1016
LESA - Salamanca (civ/M, Spain
Distance from station: ONO 349km
Actualización: Fri, 05-Mar-2021 2:30pm CET
Parcialmente nuboso
Parcialmente nuboso
 Viento del ENE
Viento: ENE 20 km/h
Temperatura: 15°C
Rocío: 6°C
Humedad: 55%
Barómetro: 1015 hPa
Clouds: Parcialmente nuboso
Visibility: 8 km
2021/03/05 13:30 LESA 051330Z 07011KT 040V100 8000 NSC 15/06 Q1015
 
LEXJ - Santander/Paraya, Spain
Distance from station: NNO 247km
Actualización: Fri, 05-Mar-2021 2:30pm CET
Muy nuboso
Muy nuboso
 Viento del ENE
Viento: ENE 15 km/h
Temperatura: 13°C
Rocío: 10°C
Humedad: 82%
Barómetro: 1021 hPa
Clouds: Muy nuboso
Visibility: 10 km
Cloud details: Parcialmente nuboso 427 m
Muy nuboso 853 m
2021/03/05 13:30 LEXJ 051330Z 06008KT 020V100 9999 SCT014 BKN028 13/10 Q1021
LEAS - Asturias/Aviles, Spain
Distance from station: NO 214km
Actualización: Fri, 05-Mar-2021 2:30pm CET
Muy nuboso
Muy nuboso
 Viento del E
Viento: E 15 km/h
Temperatura: 11°C
Rocío: 9°C
Humedad: 88%
Barómetro: 1021 hPa
Clouds: Muy nuboso
Visibility: 9 km
Cloud details: Muy nuboso 366 m
2021/03/05 13:30 LEAS 051330Z 09008KT 030V130 9000 BKN012 11/09 Q1021 NOSIG
 
LECO - La Coruna/Alvedr, Spain
Distance from station: ONO 222km
Actualización: Fri, 05-Mar-2021 2:30pm CET
Despejado
Despejado
 Viento del NE
Viento: NE 19 km/h
Temperatura: 17°C
Rocío: 9°C
Humedad: 59%
Barómetro: 1019 hPa
Resumen: Despejado
Visibility: greater than 10 km
2021/03/05 13:30 LECO 051330Z 05010KT 020V100 CAVOK 17/09 Q1019 NOSIG
LEVX - Vigo/Peinador, Spain
Distance from station: O 214km
Actualización: Fri, 05-Mar-2021 2:30pm CET
Few Clouds
Few Clouds
 Viento del NE
Viento: NE 6 km/h
Temperatura: 21°C
Rocío: 11°C
Humedad: 53%
Barómetro: 1016 hPa
Clouds: Few Clouds
Visibility: 10 km
Cloud details: Few Clouds 1219 m
2021/03/05 13:30 LEVX 051330Z 05003KT 350V120 9999 FEW040 21/11 Q1016 NOSIG